Time;durP1;ratioP1;P1;durP2;ratioP2;P2;SDS_P1;SDS_P2;PMS_P1;PMS_P2;Temp;Humidity;BMP_temperature;BMP_pressure;BME280_temperature;BME280_humidity;BME280_pressure;Samples;Min_cycle;Max_cycle;Signal;HPM_P1;HPM_P2
2023/09/14 00:02:22;;;;;;;8.38;7.53;;;;;;;;;;10400482;28;20057;-49
2023/09/14 00:07:23;;;;;;;10.10;7.60;;;;;;;;;;10405132;28;20059;-61
2023/09/14 00:12:23;;;;;;;10.02;7.35;;;;;;;;;;10390668;28;20030;-49
2023/09/14 00:17:24;;;;;;;11.30;7.10;;;;;;;;;;10399518;28;20033;-49
2023/09/14 00:22:24;;;;;;;7.88;6.97;;;;;;;;;;10408572;28;20025;-50
2023/09/14 00:27:25;;;;;;;8.50;7.03;;;;;;;;;;10400888;28;20048;-49
2023/09/14 00:32:26;;;;;;;9.55;6.50;;;;;;;;;;10394857;28;20448;-48
2023/09/14 00:37:26;;;;;;;10.48;7.50;;;;;;;;;;10392605;28;20029;-53
2023/09/14 00:42:27;;;;;;;9.35;7.20;;;;;;;;;;10406586;28;20042;-48
2023/09/14 00:47:27;;;;;;;8.45;6.45;;;;;;;;;;10403605;28;20264;-49
2023/09/14 00:52:28;;;;;;;10.93;6.30;;;;;;;;;;10396685;28;20034;-48
2023/09/14 00:57:29;;;;;;;18.70;7.28;;;;;;;;;;10397544;28;20117;-49
2023/09/14 01:02:30;;;;;;;7.40;6.63;;;;;;;;;;10409131;28;20033;-49
2023/09/14 01:07:30;;;;;;;12.90;6.60;;;;;;;;;;10403057;28;20120;-47
2023/09/14 01:12:32;;;;;;;8.35;7.28;;;;;;;;;;10406331;28;20474;-47
2023/09/14 01:18:28;;;;;;;6.55;5.53;;;;;;;;;;10393930;28;20022;-47
2023/09/14 01:23:43;;;;;;;9.00;6.30;;;;;;;;;;10382672;28;20493;-48
2023/09/14 01:28:44;;;;;;;10.32;6.50;;;;;;;;;;10368862;28;20053;-48
2023/09/14 01:33:48;;;;;;;11.90;6.72;;;;;;;;;;10392315;28;20441;-48
2023/09/14 01:38:51;;;;;;;8.05;5.95;;;;;;;;;;10368129;28;20426;-48
2023/09/14 01:43:53;;;;;;;7.85;5.38;;;;;;;;;;10377258;28;20021;-48
2023/09/14 01:48:54;;;;;;;6.13;5.30;;;;;;;;;;10371842;28;20144;-47
2023/09/14 01:53:54;;;;;;;7.67;5.80;;;;;;;;;;10369342;28;20087;-47
2023/09/14 01:58:55;;;;;;;9.38;5.95;;;;;;;;;;10370285;28;20592;-48
2023/09/14 02:03:55;;;;;;;10.27;5.80;;;;;;;;;;10368460;28;20215;-48
2023/09/14 02:08:56;;;;;;;8.77;6.00;;;;;;;;;;10369592;28;20475;-48
2023/09/14 02:13:56;;;;;;;7.13;5.27;;;;;;;;;;10367791;28;20022;-48
2023/09/14 02:18:57;;;;;;;6.95;5.65;;;;;;;;;;10381044;28;20997;-54
2023/09/14 02:23:58;;;;;;;8.80;5.63;;;;;;;;;;10380545;28;20277;-47
2023/09/14 02:28:58;;;;;;;8.80;6.07;;;;;;;;;;10369392;28;20041;-48
2023/09/14 02:33:59;;;;;;;10.85;5.82;;;;;;;;;;10371079;28;20091;-48
2023/09/14 02:38:59;;;;;;;8.38;5.78;;;;;;;;;;10379002;28;20022;-48
2023/09/14 02:44:00;;;;;;;10.93;5.88;;;;;;;;;;10376816;28;20041;-49
2023/09/14 02:49:01;;;;;;;7.57;5.97;;;;;;;;;;10379512;28;20026;-49
2023/09/14 02:54:02;;;;;;;9.45;5.65;;;;;;;;;;10368353;28;20424;-48
2023/09/14 02:59:03;;;;;;;9.48;6.13;;;;;;;;;;10385172;28;20038;-48
2023/09/14 03:04:04;;;;;;;6.43;5.47;;;;;;;;;;10377182;28;20302;-51
2023/09/14 03:09:04;;;;;;;7.72;5.60;;;;;;;;;;10387934;28;20045;-49
2023/09/14 03:14:05;;;;;;;9.43;6.10;;;;;;;;;;10374944;28;20022;-48
2023/09/14 03:19:06;;;;;;;9.32;6.13;;;;;;;;;;10392866;28;20037;-48
2023/09/14 03:24:06;;;;;;;7.10;5.90;;;;;;;;;;10392321;28;20030;-48
2023/09/14 03:29:07;;;;;;;7.05;5.97;;;;;;;;;;10395540;28;20092;-48
2023/09/14 03:34:08;;;;;;;7.20;6.38;;;;;;;;;;10377627;28;20034;-49
2023/09/14 03:39:11;;;;;;;7.65;5.90;;;;;;;;;;10374589;28;20374;-48
2023/09/14 03:44:11;;;;;;;6.40;5.80;;;;;;;;;;10378767;28;20029;-49
2023/09/14 03:49:12;;;;;;;11.02;6.57;;;;;;;;;;10384915;28;20037;-49
2023/09/14 03:54:13;;;;;;;9.95;5.97;;;;;;;;;;10385945;28;20034;-48
2023/09/14 03:59:14;;;;;;;9.07;5.88;;;;;;;;;;10373941;28;20033;-48
2023/09/14 04:04:14;;;;;;;8.38;6.90;;;;;;;;;;10373537;28;20470;-47
2023/09/14 04:09:15;;;;;;;9.93;6.38;;;;;;;;;;10383804;28;20033;-48
2023/09/14 04:14:15;;;;;;;7.85;6.63;;;;;;;;;;10389810;28;20045;-48
2023/09/14 04:19:16;;;;;;;14.95;6.97;;;;;;;;;;10385074;28;20038;-48
2023/09/14 04:24:16;;;;;;;8.98;6.60;;;;;;;;;;10379717;28;20032;-47
2023/09/14 04:29:17;;;;;;;8.90;6.70;;;;;;;;;;10380647;28;20029;-48
2023/09/14 04:34:17;;;;;;;8.13;6.72;;;;;;;;;;10373013;28;20033;-48
2023/09/14 04:39:19;;;;;;;7.22;6.53;;;;;;;;;;10377318;28;20041;-48
2023/09/14 04:44:19;;;;;;;11.27;6.60;;;;;;;;;;10385776;28;20052;-47
2023/09/14 04:49:20;;;;;;;9.52;6.40;;;;;;;;;;10381617;28;20034;-47
2023/09/14 04:54:20;;;;;;;10.98;6.30;;;;;;;;;;10379466;28;20029;-49
2023/09/14 04:59:24;;;;;;;9.63;6.43;;;;;;;;;;10406046;28;20034;-47
2023/09/14 05:04:24;;;;;;;10.35;6.40;;;;;;;;;;10383942;28;20419;-47
2023/09/14 05:09:25;;;;;;;10.68;6.68;;;;;;;;;;10377138;28;20037;-48
2023/09/14 05:14:26;;;;;;;9.63;6.57;;;;;;;;;;10370904;28;20030;-48
2023/09/14 05:19:27;;;;;;;10.57;6.60;;;;;;;;;;10375700;28;20051;-48
2023/09/14 05:24:28;;;;;;;8.15;6.82;;;;;;;;;;10386614;28;20378;-47
2023/09/14 05:29:28;;;;;;;8.98;6.80;;;;;;;;;;10399437;28;20037;-47
2023/09/14 05:34:29;;;;;;;8.80;6.88;;;;;;;;;;10399347;28;20038;-48
2023/09/14 05:39:30;;;;;;;10.07;6.88;;;;;;;;;;10405635;28;20021;-49
2023/09/14 05:44:31;;;;;;;9.82;7.00;;;;;;;;;;10405157;28;20052;-50
2023/09/14 05:49:31;;;;;;;12.18;6.82;;;;;;;;;;10401800;28;20041;-53
2023/09/14 05:54:32;;;;;;;15.48;7.03;;;;;;;;;;10403341;28;20102;-49
2023/09/14 05:59:54;;;;;;;10.73;6.50;;;;;;;;;;10402853;28;20049;-50
2023/09/14 06:04:55;;;;;;;8.45;5.97;;;;;;;;;;10400472;28;20043;-47
2023/09/14 06:09:55;;;;;;;7.18;5.93;;;;;;;;;;10399997;28;20107;-50
2023/09/14 06:14:59;;;;;;;9.65;6.00;;;;;;;;;;10400806;28;20424;-47
2023/09/14 06:19:59;;;;;;;10.02;6.03;;;;;;;;;;10400835;28;20061;-48
2023/09/14 06:25:00;;;;;;;14.02;6.10;;;;;;;;;;10399969;28;20041;-50
2023/09/14 06:30:00;;;;;;;11.38;5.80;;;;;;;;;;10398006;28;20037;-48
2023/09/14 06:35:01;;;;;;;10.52;5.95;;;;;;;;;;10407705;28;20037;-50
2023/09/14 06:40:03;;;;;;;7.88;5.75;;;;;;;;;;10407060;28;20147;-46
2023/09/14 06:45:06;;;;;;;8.40;5.93;;;;;;;;;;10412576;28;20121;-47
2023/09/14 06:50:07;;;;;;;12.93;6.40;;;;;;;;;;10406154;28;20140;-47
2023/09/14 06:55:08;;;;;;;7.40;6.18;;;;;;;;;;10405279;28;20542;-47
2023/09/14 07:00:14;;;;;;;13.48;6.40;;;;;;;;;;10406455;28;20018;-48
2023/09/14 07:05:14;;;;;;;14.10;6.28;;;;;;;;;;10393869;28;20030;-52
2023/09/14 07:10:15;;;;;;;10.32;6.18;;;;;;;;;;10388534;28;20038;-48
2023/09/14 07:15:15;;;;;;;14.73;6.82;;;;;;;;;;10376030;28;20040;-48
2023/09/14 07:20:16;;;;;;;15.88;6.80;;;;;;;;;;10386562;28;20025;-47
2023/09/14 07:25:17;;;;;;;15.82;7.38;;;;;;;;;;10384391;28;20644;-46
2023/09/14 07:30:17;;;;;;;16.92;6.38;;;;;;;;;;10384152;28;20030;-51
2023/09/14 07:35:18;;;;;;;18.23;6.93;;;;;;;;;;10392797;28;20029;-57
2023/09/14 07:40:18;;;;;;;25.40;7.15;;;;;;;;;;10396169;28;20060;-46
2023/09/14 07:45:19;;;;;;;7.22;6.22;;;;;;;;;;10398242;28;20037;-47
2023/09/14 07:50:20;;;;;;;13.35;6.22;;;;;;;;;;10403757;28;20053;-47
2023/09/14 07:55:20;;;;;;;12.88;6.95;;;;;;;;;;10408920;28;20142;-46
2023/09/14 08:00:21;;;;;;;18.77;6.78;;;;;;;;;;10377692;28;20026;-53
2023/09/14 08:05:21;;;;;;;9.27;6.40;;;;;;;;;;10373059;28;20390;-46
2023/09/14 08:10:23;;;;;;;10.35;6.05;;;;;;;;;;10377392;28;20381;-53
2023/09/14 08:15:24;;;;;;;8.48;6.07;;;;;;;;;;10373174;28;20045;-53
2023/09/14 08:20:25;;;;;;;12.77;6.15;;;;;;;;;;10371966;28;20091;-47
2023/09/14 08:25:25;;;;;;;11.18;6.47;;;;;;;;;;10386427;28;20276;-46
2023/09/14 08:30:26;;;;;;;8.70;5.75;;;;;;;;;;10382127;28;20025;-48
2023/09/14 08:35:28;;;;;;;7.97;5.85;;;;;;;;;;10384854;28;20065;-46
2023/09/14 08:40:30;;;;;;;7.45;5.57;;;;;;;;;;10371332;28;20122;-59
2023/09/14 08:45:32;;;;;;;13.95;5.43;;;;;;;;;;10381363;28;20042;-46
2023/09/14 08:50:34;;;;;;;8.75;6.28;;;;;;;;;;10394928;28;20044;-47
2023/09/14 08:55:35;;;;;;;10.45;5.38;;;;;;;;;;10371031;28;20037;-46
2023/09/14 09:00:37;;;;;;;10.10;6.22;;;;;;;;;;10383621;28;20025;-46
2023/09/14 09:05:38;;;;;;;8.63;6.13;;;;;;;;;;10371409;28;20056;-63
2023/09/14 09:10:40;;;;;;;8.63;5.70;;;;;;;;;;10374533;28;20113;-46
2023/09/14 09:15:41;;;;;;;7.68;5.95;;;;;;;;;;10381197;28;20343;-54
2023/09/14 09:20:45;;;;;;;10.70;6.50;;;;;;;;;;10370720;28;20213;-46
2023/09/14 09:25:49;;;;;;;10.10;5.82;;;;;;;;;;10370608;28;20025;-49
2023/09/14 09:30:54;;;;;;;9.63;5.82;;;;;;;;;;10380528;28;20030;-51
2023/09/14 09:36:00;;;;;;;9.50;6.07;;;;;;;;;;10382920;28;20363;-60
2023/09/14 09:41:07;;;;;;;6.22;5.45;;;;;;;;;;10369708;28;20091;-62
2023/09/14 09:46:15;;;;;;;10.02;6.05;;;;;;;;;;10379690;28;20042;-46
2023/09/14 09:51:21;;;;;;;7.97;6.00;;;;;;;;;;10368584;28;20034;-46
2023/09/14 09:56:23;;;;;;;12.63;6.07;;;;;;;;;;10372528;28;20151;-47
2023/09/14 10:01:23;;;;;;;8.43;5.65;;;;;;;;;;10376695;28;20347;-46
2023/09/14 10:06:24;;;;;;;11.82;6.25;;;;;;;;;;10374965;28;20116;-46
2023/09/14 10:11:26;;;;;;;8.82;6.20;;;;;;;;;;10368558;28;20042;-46
2023/09/14 10:16:27;;;;;;;9.35;6.55;;;;;;;;;;10390660;28;20108;-46
2023/09/14 10:21:30;;;;;;;7.78;6.03;;;;;;;;;;10369838;28;20585;-46
2023/09/14 10:26:30;;;;;;;7.82;5.95;;;;;;;;;;10392742;28;20109;-47
2023/09/14 10:31:32;;;;;;;8.70;5.28;;;;;;;;;;10367167;28;20462;-46
2023/09/14 10:36:35;;;;;;;6.82;6.07;;;;;;;;;;10377318;28;20030;-46
2023/09/14 10:41:35;;;;;;;12.90;6.22;;;;;;;;;;10370390;28;20045;-46
2023/09/14 10:46:41;;;;;;;8.60;6.00;;;;;;;;;;10379091;28;20053;-52
2023/09/14 10:51:42;;;;;;;6.15;5.55;;;;;;;;;;10368573;28;20541;-46
2023/09/14 10:56:44;;;;;;;7.80;6.15;;;;;;;;;;10367998;28;20026;-47
2023/09/14 11:01:47;;;;;;;8.00;5.53;;;;;;;;;;10368159;28;20038;-46
2023/09/14 11:06:52;;;;;;;8.20;5.70;;;;;;;;;;10370662;28;20033;-46
2023/09/14 11:11:54;;;;;;;9.52;5.90;;;;;;;;;;10379517;28;20400;-48
2023/09/14 11:16:57;;;;;;;6.72;6.03;;;;;;;;;;10369084;28;20033;-46
2023/09/14 11:22:12;;;;;;;8.73;5.65;;;;;;;;;;10386804;28;20026;-46
2023/09/14 11:27:18;;;;;;;7.43;5.57;;;;;;;;;;10377582;28;20494;-47
2023/09/14 11:32:22;;;;;;;6.85;5.88;;;;;;;;;;10386850;28;20136;-46
2023/09/14 11:37:25;;;;;;;6.38;5.60;;;;;;;;;;10374031;28;20041;-46
2023/09/14 11:42:25;;;;;;;7.10;5.97;;;;;;;;;;10377297;28;20079;-49
2023/09/14 11:47:27;;;;;;;6.50;5.72;;;;;;;;;;10396430;28;20421;-46
2023/09/14 11:52:30;;;;;;;6.45;5.82;;;;;;;;;;10390614;28;20040;-51
2023/09/14 11:57:31;;;;;;;6.93;6.05;;;;;;;;;;10375584;28;20034;-52
2023/09/14 12:02:31;;;;;;;8.68;6.63;;;;;;;;;;10372557;28;20025;-56
2023/09/14 12:07:32;;;;;;;8.32;6.20;;;;;;;;;;10386840;28;20030;-46
2023/09/14 12:12:34;;;;;;;7.80;5.90;;;;;;;;;;10401448;28;20034;-46
2023/09/14 12:17:35;;;;;;;10.57;6.15;;;;;;;;;;10381155;28;20068;-46
2023/09/14 12:22:35;;;;;;;6.75;5.40;;;;;;;;;;10379849;28;20365;-46
2023/09/14 12:27:36;;;;;;;7.90;6.03;;;;;;;;;;10385105;28;20389;-59
2023/09/14 12:32:40;;;;;;;6.85;5.50;;;;;;;;;;10382902;28;20029;-46
2023/09/14 12:37:41;;;;;;;9.48;6.35;;;;;;;;;;10396899;28;20059;-47
2023/09/14 12:42:43;;;;;;;10.93;6.82;;;;;;;;;;10398136;28;20116;-48
2023/09/14 12:47:47;;;;;;;9.98;6.20;;;;;;;;;;10397996;28;20056;-61
2023/09/14 12:52:53;;;;;;;9.55;6.55;;;;;;;;;;10401455;28;20439;-46
2023/09/14 12:57:54;;;;;;;9.20;6.97;;;;;;;;;;10403506;28;20047;-47
2023/09/14 13:02:56;;;;;;;10.50;6.53;;;;;;;;;;10402971;28;20036;-48
2023/09/14 13:08:00;;;;;;;7.20;6.10;;;;;;;;;;10391130;28;20366;-47
2023/09/14 13:13:01;;;;;;;6.90;5.85;;;;;;;;;;10387216;28;20034;-46
2023/09/14 13:18:05;;;;;;;13.13;6.30;;;;;;;;;;10397401;28;20121;-51
2023/09/14 13:23:06;;;;;;;8.65;6.68;;;;;;;;;;10387739;28;21265;-51
2023/09/14 13:28:07;;;;;;;12.98;6.30;;;;;;;;;;10340678;28;20531;-50
2023/09/14 13:33:08;;;;;;;7.88;6.30;;;;;;;;;;10330721;28;20137;-48
2023/09/14 13:38:09;;;;;;;11.80;6.50;;;;;;;;;;10339437;28;20037;-48
2023/09/14 13:43:09;;;;;;;10.13;6.15;;;;;;;;;;10342007;28;20030;-47
2023/09/14 13:48:10;;;;;;;6.30;5.70;;;;;;;;;;10352984;28;20042;-50
2023/09/14 13:53:10;;;;;;;12.07;5.85;;;;;;;;;;10345458;28;20029;-59
2023/09/14 13:58:11;;;;;;;6.80;4.70;;;;;;;;;;10339767;28;20030;-57
2023/09/14 14:03:11;;;;;;;6.90;5.15;;;;;;;;;;10341923;28;20080;-59
2023/09/14 14:08:13;;;;;;;9.35;5.18;;;;;;;;;;10337985;28;20030;-62
2023/09/14 14:13:14;;;;;;;6.35;4.75;;;;;;;;;;10364657;28;20034;-54
2023/09/14 14:18:16;;;;;;;6.50;4.93;;;;;;;;;;10361682;28;20104;-57
2023/09/14 14:23:16;;;;;;;4.97;4.50;;;;;;;;;;10357406;28;20033;-57
2023/09/14 14:28:17;;;;;;;8.13;4.80;;;;;;;;;;10329536;28;20497;-52
2023/09/14 14:33:18;;;;;;;8.73;4.60;;;;;;;;;;10333974;28;20023;-56
2023/09/14 14:38:18;;;;;;;5.30;4.70;;;;;;;;;;10337959;28;20035;-59
2023/09/14 14:43:19;;;;;;;6.95;4.65;;;;;;;;;;10329954;28;20058;-56
2023/09/14 14:48:20;;;;;;;5.43;4.93;;;;;;;;;;10340455;28;20050;-59
2023/09/14 14:53:23;;;;;;;5.18;4.35;;;;;;;;;;10342433;28;20030;-55
2023/09/14 14:58:25;;;;;;;7.97;4.55;;;;;;;;;;10339766;28;20084;-55
2023/09/14 15:03:25;;;;;;;4.85;4.38;;;;;;;;;;10341513;28;20029;-51
2023/09/14 15:08:26;;;;;;;8.52;4.47;;;;;;;;;;10351496;28;20034;-58
2023/09/14 15:13:27;;;;;;;7.25;4.38;;;;;;;;;;10345837;28;20026;-60
2023/09/14 15:18:37;;;;;;;8.23;4.78;;;;;;;;;;10356692;28;20034;-60
2023/09/14 15:23:38;;;;;;;6.13;4.25;;;;;;;;;;10362302;28;20104;-56
2023/09/14 15:28:39;;;;;;;4.90;4.38;;;;;;;;;;10357012;28;20038;-55
2023/09/14 15:33:39;;;;;;;5.50;4.18;;;;;;;;;;10356195;28;20053;-58
2023/09/14 15:38:41;;;;;;;5.30;4.28;;;;;;;;;;10356600;28;20026;-58
2023/09/14 15:43:43;;;;;;;5.50;4.22;;;;;;;;;;10357231;28;20133;-58
2023/09/14 15:48:43;;;;;;;4.20;3.80;;;;;;;;;;10367489;28;20045;-54
2023/09/14 15:53:47;;;;;;;4.88;4.40;;;;;;;;;;10362479;28;20026;-55
2023/09/14 15:58:48;;;;;;;4.97;3.85;;;;;;;;;;10356089;28;20385;-57
2023/09/14 16:03:48;;;;;;;6.95;4.20;;;;;;;;;;10363476;28;20025;-54
2023/09/14 16:08:49;;;;;;;6.93;3.95;;;;;;;;;;10339329;28;20030;-51
2023/09/14 16:13:50;;;;;;;5.82;3.92;;;;;;;;;;10341614;28;20014;-49
2023/09/14 16:18:50;;;;;;;5.05;4.18;;;;;;;;;;10340179;28;20045;-48
2023/09/14 16:23:51;;;;;;;4.35;3.70;;;;;;;;;;10333062;28;20458;-57
2023/09/14 16:28:52;;;;;;;6.82;4.80;;;;;;;;;;10344291;28;20026;-49
2023/09/14 16:33:53;;;;;;;9.13;5.20;;;;;;;;;;10334178;28;20041;-51
2023/09/14 16:38:58;;;;;;;6.43;4.95;;;;;;;;;;10335283;28;20124;-59
2023/09/14 16:43:59;;;;;;;8.55;4.72;;;;;;;;;;10343425;28;20397;-51
2023/09/14 16:49:23;;;;;;;10.02;5.43;;;;;;;;;;10333861;28;20030;-50
2023/09/14 16:54:30;;;;;;;10.05;5.38;;;;;;;;;;10345615;28;20072;-54
2023/09/14 16:59:30;;;;;;;7.85;4.53;;;;;;;;;;10360384;28;20026;-48
2023/09/14 17:04:31;;;;;;;8.00;4.10;;;;;;;;;;10349964;28;20030;-51
2023/09/14 17:09:32;;;;;;;4.53;4.00;;;;;;;;;;10345834;28;20034;-49
2023/09/14 17:14:33;;;;;;;4.30;3.90;;;;;;;;;;10337825;28;20489;-49
2023/09/14 17:19:34;;;;;;;7.32;4.75;;;;;;;;;;10364050;28;20478;-53
2023/09/14 17:24:35;;;;;;;4.63;3.90;;;;;;;;;;10359881;28;20034;-48
2023/09/14 17:29:35;;;;;;;4.35;3.85;;;;;;;;;;10347516;28;20398;-53
2023/09/14 17:34:36;;;;;;;4.40;4.00;;;;;;;;;;10340581;28;20470;-53
2023/09/14 17:39:37;;;;;;;11.88;4.72;;;;;;;;;;10345687;28;20035;-50
2023/09/14 17:44:37;;;;;;;4.95;4.13;;;;;;;;;;10330959;28;20054;-50
2023/09/14 17:49:39;;;;;;;6.68;4.68;;;;;;;;;;10342849;28;20042;-49
2023/09/14 17:54:39;;;;;;;5.25;4.57;;;;;;;;;;10331180;28;20025;-51
2023/09/14 17:59:40;;;;;;;6.45;4.82;;;;;;;;;;10341493;28;20029;-53
2023/09/14 18:04:41;;;;;;;4.97;4.43;;;;;;;;;;10336912;28;20029;-54
2023/09/14 18:09:42;;;;;;;8.57;4.78;;;;;;;;;;10336435;28;20049;-57
2023/09/14 18:14:43;;;;;;;5.57;4.82;;;;;;;;;;10348052;28;20034;-53
2023/09/14 18:19:43;;;;;;;5.63;5.00;;;;;;;;;;10349098;28;20069;-59
2023/09/14 18:24:48;;;;;;;7.72;5.35;;;;;;;;;;10358947;28;20022;-50
2023/09/14 18:29:49;;;;;;;6.13;5.28;;;;;;;;;;10353697;28;20041;-58
2023/09/14 18:34:49;;;;;;;10.48;5.75;;;;;;;;;;10370962;28;20042;-58
2023/09/14 18:39:50;;;;;;;7.13;5.47;;;;;;;;;;10366560;28;20026;-52
2023/09/14 18:44:51;;;;;;;13.18;5.55;;;;;;;;;;10357554;28;20042;-52
2023/09/14 18:49:52;;;;;;;8.02;5.40;;;;;;;;;;10358681;28;20026;-54
2023/09/14 18:54:52;;;;;;;8.55;5.47;;;;;;;;;;10346150;28;20073;-49
2023/09/14 18:59:54;;;;;;;7.35;5.28;;;;;;;;;;10348489;28;20041;-56
2023/09/14 19:04:55;;;;;;;7.93;5.35;;;;;;;;;;10358354;28;20033;-60
2023/09/14 19:09:55;;;;;;;8.88;6.05;;;;;;;;;;10347560;28;20516;-50
2023/09/14 19:14:57;;;;;;;6.78;5.82;;;;;;;;;;10349624;28;20030;-50
2023/09/14 19:19:58;;;;;;;9.23;4.88;;;;;;;;;;10349429;28;20121;-50
2023/09/14 19:24:58;;;;;;;11.00;5.38;;;;;;;;;;10348921;28;20037;-55
2023/09/14 19:29:59;;;;;;;9.77;5.75;;;;;;;;;;10347742;28;20045;-59
2023/09/14 19:35:00;;;;;;;13.50;5.68;;;;;;;;;;10345011;28;20025;-54
2023/09/14 19:40:02;;;;;;;10.23;5.68;;;;;;;;;;10352822;28;20022;-60
2023/09/14 19:45:03;;;;;;;10.88;6.00;;;;;;;;;;10343112;28;20272;-55
2023/09/14 19:50:07;;;;;;;7.35;5.53;;;;;;;;;;10346727;28;20038;-54
2023/09/14 19:55:08;;;;;;;6.30;5.70;;;;;;;;;;10348329;28;20030;-50
2023/09/14 20:00:09;;;;;;;40.10;7.70;;;;;;;;;;10347240;28;20022;-58
2023/09/14 20:05:09;;;;;;;23.17;7.00;;;;;;;;;;10346167;28;20052;-59
2023/09/14 20:10:10;;;;;;;38.55;6.95;;;;;;;;;;10333271;28;20046;-56
2023/09/14 20:15:12;;;;;;;26.75;6.22;;;;;;;;;;10351431;28;20030;-54
2023/09/14 20:20:13;;;;;;;23.83;5.68;;;;;;;;;;10347243;28;20033;-53
2023/09/14 20:25:14;;;;;;;24.75;5.55;;;;;;;;;;10332781;28;20021;-57
2023/09/14 20:30:16;;;;;;;22.02;6.32;;;;;;;;;;10343426;28;20026;-61
2023/09/14 20:35:17;;;;;;;15.48;5.20;;;;;;;;;;10342626;28;20030;-58
2023/09/14 20:40:17;;;;;;;24.85;5.22;;;;;;;;;;10349977;28;20026;-56
2023/09/14 20:45:18;;;;;;;21.40;4.70;;;;;;;;;;10347799;28;20509;-52
2023/09/14 20:50:19;;;;;;;15.95;4.63;;;;;;;;;;10352157;28;20034;-56
2023/09/14 20:55:21;;;;;;;23.20;4.85;;;;;;;;;;10354101;28;20033;-58
2023/09/14 21:00:22;;;;;;;10.70;3.65;;;;;;;;;;10349294;28;20386;-55
2023/09/14 21:05:23;;;;;;;22.90;3.97;;;;;;;;;;10359967;28;20039;-57
2023/09/14 21:10:24;;;;;;;9.93;3.60;;;;;;;;;;10355229;28;20022;-57
2023/09/14 21:15:26;;;;;;;11.50;3.08;;;;;;;;;;10356947;28;20018;-57
2023/09/14 21:20:27;;;;;;;10.82;3.78;;;;;;;;;;10352033;28;20033;-56
2023/09/14 21:25:28;;;;;;;16.75;3.47;;;;;;;;;;10324141;28;20042;-56
2023/09/14 21:30:31;;;;;;;4.75;3.28;;;;;;;;;;10332809;28;21003;-56
2023/09/14 21:35:31;;;;;;;8.10;3.10;;;;;;;;;;10332523;28;20104;-57
2023/09/14 21:40:32;;;;;;;10.98;3.30;;;;;;;;;;10330117;28;20026;-56
2023/09/14 21:45:36;;;;;;;7.75;3.13;;;;;;;;;;10343882;28;20076;-57
2023/09/14 21:50:36;;;;;;;3.83;2.83;;;;;;;;;;10332261;28;20474;-57
2023/09/14 21:55:37;;;;;;;4.30;2.97;;;;;;;;;;10345607;28;20057;-57
2023/09/14 22:00:39;;;;;;;8.20;2.80;;;;;;;;;;10349266;28;20026;-57
2023/09/14 22:05:40;;;;;;;5.65;2.63;;;;;;;;;;10345531;28;20041;-58
2023/09/14 22:10:40;;;;;;;7.75;2.97;;;;;;;;;;10356393;28;20036;-58
2023/09/14 22:15:43;;;;;;;5.72;2.78;;;;;;;;;;10358564;28;20465;-57
2023/09/14 22:20:44;;;;;;;5.22;2.47;;;;;;;;;;10362819;28;20014;-58
2023/09/14 22:25:45;;;;;;;9.95;3.03;;;;;;;;;;10359505;28;20026;-58
2023/09/14 22:30:46;;;;;;;5.28;2.75;;;;;;;;;;10356098;28;20500;-59
2023/09/14 22:35:48;;;;;;;3.22;2.58;;;;;;;;;;10356966;28;20042;-57
2023/09/14 22:40:49;;;;;;;3.53;2.50;;;;;;;;;;10360852;28;20022;-57
2023/09/14 22:45:50;;;;;;;11.52;3.17;;;;;;;;;;10339492;28;20500;-58
2023/09/14 22:51:13;;;;;;;7.85;2.60;;;;;;;;;;10362292;28;20041;-58
2023/09/14 22:56:14;;;;;;;6.68;2.50;;;;;;;;;;10362828;28;20057;-58
2023/09/14 23:01:26;;;;;;;5.15;2.75;;;;;;;;;;10349257;28;20172;-58
2023/09/14 23:06:27;;;;;;;3.97;2.20;;;;;;;;;;10342039;28;20489;-56
2023/09/14 23:11:43;;;;;;;4.32;2.60;;;;;;;;;;10361281;28;20080;-57
2023/09/14 23:16:51;;;;;;;6.15;2.55;;;;;;;;;;10346405;28;20041;-57
2023/09/14 23:21:52;;;;;;;5.47;2.80;;;;;;;;;;10370008;28;20058;-57
2023/09/14 23:26:52;;;;;;;3.60;2.50;;;;;;;;;;10370693;28;20022;-55
2023/09/14 23:31:54;;;;;;;2.53;2.10;;;;;;;;;;10370096;28;20374;-54
2023/09/14 23:36:55;;;;;;;4.40;2.50;;;;;;;;;;10363666;28;20037;-57
2023/09/14 23:41:58;;;;;;;4.43;2.63;;;;;;;;;;10356151;28;20068;-54
2023/09/14 23:46:58;;;;;;;5.07;2.33;;;;;;;;;;10368641;28;20504;-57
2023/09/14 23:52:00;;;;;;;2.80;2.13;;;;;;;;;;10369706;28;20061;-53
2023/09/14 23:57:02;;;;;;;5.03;2.45;;;;;;;;;;10355778;28;20129;-54
